sensor_id;sensor_type;location;lat;lon;timestamp;temperature;humidity
20428;DHT22;10373;49.768;18.302;2022-08-19T00:00:35;22.80;99.90
20428;DHT22;10373;49.768;18.302;2022-08-19T00:03:01;22.80;99.90
20428;DHT22;10373;49.768;18.302;2022-08-19T00:05:27;22.80;99.90
20428;DHT22;10373;49.768;18.302;2022-08-19T00:07:53;22.70;99.90
20428;DHT22;10373;49.768;18.302;2022-08-19T00:10:20;22.70;99.90
20428;DHT22;10373;49.768;18.302;2022-08-19T00:12:46;22.70;99.90
20428;DHT22;10373;49.768;18.302;2022-08-19T00:15:15;22.60;99.90
20428;DHT22;10373;49.768;18.302;2022-08-19T00:17:43;22.60;99.90
20428;DHT22;10373;49.768;18.302;2022-08-19T00:20:18;22.60;99.90
20428;DHT22;10373;49.768;18.302;2022-08-19T00:22:45;22.60;99.90
20428;DHT22;10373;49.768;18.302;2022-08-19T00:25:11;22.60;99.90
20428;DHT22;10373;49.768;18.302;2022-08-19T00:27:37;22.60;99.90
20428;DHT22;10373;49.768;18.302;2022-08-19T00:30:04;22.50;99.90
20428;DHT22;10373;49.768;18.302;2022-08-19T00:32:31;22.50;99.90
20428;DHT22;10373;49.768;18.302;2022-08-19T00:34:57;22.50;99.90
20428;DHT22;10373;49.768;18.302;2022-08-19T00:37:24;22.40;99.90
20428;DHT22;10373;49.768;18.302;2022-08-19T00:39:50;22.40;99.90
20428;DHT22;10373;49.768;18.302;2022-08-19T00:42:18;22.30;99.90
20428;DHT22;10373;49.768;18.302;2022-08-19T00:44:44;22.30;99.90
20428;DHT22;10373;49.768;18.302;2022-08-19T00:47:09;22.20;99.90
20428;DHT22;10373;49.768;18.302;2022-08-19T00:49:41;22.20;99.90
20428;DHT22;10373;49.768;18.302;2022-08-19T00:52:15;22.20;99.90
20428;DHT22;10373;49.768;18.302;2022-08-19T00:54:42;22.20;99.90
20428;DHT22;10373;49.768;18.302;2022-08-19T00:57:12;22.20;99.90
20428;DHT22;10373;49.768;18.302;2022-08-19T00:59:40;22.20;99.90
20428;DHT22;10373;49.768;18.302;2022-08-19T01:02:07;22.10;99.90
20428;DHT22;10373;49.768;18.302;2022-08-19T01:04:33;22.10;99.90
20428;DHT22;10373;49.768;18.302;2022-08-19T01:06:59;22.10;99.90
20428;DHT22;10373;49.768;18.302;2022-08-19T01:09:25;22.10;99.90
20428;DHT22;10373;49.768;18.302;2022-08-19T01:11:51;22.10;99.90
20428;DHT22;10373;49.768;18.302;2022-08-19T01:14:17;22.10;99.90
20428;DHT22;10373;49.768;18.302;2022-08-19T01:16:45;22.10;99.90
20428;DHT22;10373;49.768;18.302;2022-08-19T01:19:29;22.10;99.90
20428;DHT22;10373;49.768;18.302;2022-08-19T01:22:03;22.10;99.90
20428;DHT22;10373;49.768;18.302;2022-08-19T01:24:31;22.10;99.90
20428;DHT22;10373;49.768;18.302;2022-08-19T01:26:57;22.10;99.90
20428;DHT22;10373;49.768;18.302;2022-08-19T01:29:23;22.00;99.90
20428;DHT22;10373;49.768;18.302;2022-08-19T01:31:48;22.00;99.90
20428;DHT22;10373;49.768;18.302;2022-08-19T01:34:19;21.80;99.90
20428;DHT22;10373;49.768;18.302;2022-08-19T01:36:46;21.70;99.90
20428;DHT22;10373;49.768;18.302;2022-08-19T01:39:24;21.70;99.90
20428;DHT22;10373;49.768;18.302;2022-08-19T01:41:52;21.70;99.90
20428;DHT22;10373;49.768;18.302;2022-08-19T01:44:21;21.70;99.90
20428;DHT22;10373;49.768;18.302;2022-08-19T01:46:50;21.70;99.90
20428;DHT22;10373;49.768;18.302;2022-08-19T01:49:19;21.70;99.90
20428;DHT22;10373;49.768;18.302;2022-08-19T01:51:45;21.70;99.90
20428;DHT22;10373;49.768;18.302;2022-08-19T01:54:13;21.80;99.90
20428;DHT22;10373;49.768;18.302;2022-08-19T01:56:40;21.80;99.90
20428;DHT22;10373;49.768;18.302;2022-08-19T01:59:10;21.80;99.90
20428;DHT22;10373;49.768;18.302;2022-08-19T02:01:37;21.70;99.90
20428;DHT22;10373;49.768;18.302;2022-08-19T02:04:03;21.60;99.90
20428;DHT22;10373;49.768;18.302;2022-08-19T02:06:29;21.60;99.90
20428;DHT22;10373;49.768;18.302;2022-08-19T02:08:55;21.60;99.90
20428;DHT22;10373;49.768;18.302;2022-08-19T02:11:24;21.60;99.90
20428;DHT22;10373;49.768;18.302;2022-08-19T02:13:52;21.60;99.90
20428;DHT22;10373;49.768;18.302;2022-08-19T02:16:19;21.60;99.90
20428;DHT22;10373;49.768;18.302;2022-08-19T02:18:46;21.50;99.90
20428;DHT22;10373;49.768;18.302;2022-08-19T02:21:14;21.60;99.90
20428;DHT22;10373;49.768;18.302;2022-08-19T02:23:41;21.60;99.90
20428;DHT22;10373;49.768;18.302;2022-08-19T02:26:07;21.50;99.90
20428;DHT22;10373;49.768;18.302;2022-08-19T02:28:32;21.60;99.90
20428;DHT22;10373;49.768;18.302;2022-08-19T02:30:59;21.60;99.90
20428;DHT22;10373;49.768;18.302;2022-08-19T02:33:26;21.50;99.90
20428;DHT22;10373;49.768;18.302;2022-08-19T02:35:52;21.60;99.90
20428;DHT22;10373;49.768;18.302;2022-08-19T02:38:17;21.60;99.90
20428;DHT22;10373;49.768;18.302;2022-08-19T02:40:58;21.50;99.90
20428;DHT22;10373;49.768;18.302;2022-08-19T02:43:26;21.50;99.90
20428;DHT22;10373;49.768;18.302;2022-08-19T02:45:52;21.50;99.90
20428;DHT22;10373;49.768;18.302;2022-08-19T02:48:20;21.50;99.90
20428;DHT22;10373;49.768;18.302;2022-08-19T02:50:47;21.40;99.90
20428;DHT22;10373;49.768;18.302;2022-08-19T02:53:12;21.40;99.90
20428;DHT22;10373;49.768;18.302;2022-08-19T02:55:48;21.40;99.90
20428;DHT22;10373;49.768;18.302;2022-08-19T02:58:15;21.40;99.90
20428;DHT22;10373;49.768;18.302;2022-08-19T03:00:47;21.40;99.90
20428;DHT22;10373;49.768;18.302;2022-08-19T03:03:13;21.30;99.90
20428;DHT22;10373;49.768;18.302;2022-08-19T03:05:39;21.20;99.90
20428;DHT22;10373;49.768;18.302;2022-08-19T03:08:05;21.20;99.90
20428;DHT22;10373;49.768;18.302;2022-08-19T03:10:32;21.30;99.90
20428;DHT22;10373;49.768;18.302;2022-08-19T03:12:58;21.20;99.90
20428;DHT22;10373;49.768;18.302;2022-08-19T03:15:23;21.20;99.90
20428;DHT22;10373;49.768;18.302;2022-08-19T03:17:49;21.20;99.90
20428;DHT22;10373;49.768;18.302;2022-08-19T03:20:15;21.20;99.90
20428;DHT22;10373;49.768;18.302;2022-08-19T03:22:40;21.20;99.90
20428;DHT22;10373;49.768;18.302;2022-08-19T03:25:06;21.20;99.90
20428;DHT22;10373;49.768;18.302;2022-08-19T03:27:32;21.20;99.90
20428;DHT22;10373;49.768;18.302;2022-08-19T03:29:57;21.20;99.90
20428;DHT22;10373;49.768;18.302;2022-08-19T03:32:23;21.20;99.90
20428;DHT22;10373;49.768;18.302;2022-08-19T03:34:49;21.20;99.90
20428;DHT22;10373;49.768;18.302;2022-08-19T03:37:16;21.10;99.90
20428;DHT22;10373;49.768;18.302;2022-08-19T03:39:42;21.20;99.90
20428;DHT22;10373;49.768;18.302;2022-08-19T03:42:09;21.20;99.90
20428;DHT22;10373;49.768;18.302;2022-08-19T03:44:35;21.10;99.90
20428;DHT22;10373;49.768;18.302;2022-08-19T03:47:03;21.10;99.90
20428;DHT22;10373;49.768;18.302;2022-08-19T03:49:31;21.10;99.90
20428;DHT22;10373;49.768;18.302;2022-08-19T03:51:59;21.00;99.90
20428;DHT22;10373;49.768;18.302;2022-08-19T03:54:30;20.80;99.90
20428;DHT22;10373;49.768;18.302;2022-08-19T03:56:56;20.90;99.90
20428;DHT22;10373;49.768;18.302;2022-08-19T03:59:29;20.90;99.90
20428;DHT22;10373;49.768;18.302;2022-08-19T04:01:58;21.00;99.90
20428;DHT22;10373;49.768;18.302;2022-08-19T04:04:25;21.00;99.90
20428;DHT22;10373;49.768;18.302;2022-08-19T04:06:51;21.00;99.90
20428;DHT22;10373;49.768;18.302;2022-08-19T04:09:18;21.00;99.90
20428;DHT22;10373;49.768;18.302;2022-08-19T04:11:47;21.00;99.90
20428;DHT22;10373;49.768;18.302;2022-08-19T04:14:19;21.00;99.90
20428;DHT22;10373;49.768;18.302;2022-08-19T04:16:46;21.10;99.90
20428;DHT22;10373;49.768;18.302;2022-08-19T04:19:13;21.10;99.90
20428;DHT22;10373;49.768;18.302;2022-08-19T04:21:39;21.20;99.90
20428;DHT22;10373;49.768;18.302;2022-08-19T04:24:05;21.20;99.90
20428;DHT22;10373;49.768;18.302;2022-08-19T04:26:33;21.30;99.90
20428;DHT22;10373;49.768;18.302;2022-08-19T04:29:01;21.30;99.90
20428;DHT22;10373;49.768;18.302;2022-08-19T04:31:31;21.30;99.90
20428;DHT22;10373;49.768;18.302;2022-08-19T04:33:59;21.30;99.90
20428;DHT22;10373;49.768;18.302;2022-08-19T04:36:27;21.30;99.90
20428;DHT22;10373;49.768;18.302;2022-08-19T04:38:56;21.40;99.90
20428;DHT22;10373;49.768;18.302;2022-08-19T04:41:22;21.40;99.90
20428;DHT22;10373;49.768;18.302;2022-08-19T04:44:07;21.40;99.90
20428;DHT22;10373;49.768;18.302;2022-08-19T04:46:33;21.40;99.90
20428;DHT22;10373;49.768;18.302;2022-08-19T04:49:00;21.40;99.90
20428;DHT22;10373;49.768;18.302;2022-08-19T04:51:26;21.40;99.90
20428;DHT22;10373;49.768;18.302;2022-08-19T04:53:52;21.50;99.90
20428;DHT22;10373;49.768;18.302;2022-08-19T04:56:19;21.50;99.90
20428;DHT22;10373;49.768;18.302;2022-08-19T04:58:47;21.60;99.90
20428;DHT22;10373;49.768;18.302;2022-08-19T05:01:17;21.70;99.90
20428;DHT22;10373;49.768;18.302;2022-08-19T05:03:43;21.70;99.90
20428;DHT22;10373;49.768;18.302;2022-08-19T05:06:11;21.80;99.90
20428;DHT22;10373;49.768;18.302;2022-08-19T05:08:38;21.80;99.90
20428;DHT22;10373;49.768;18.302;2022-08-19T05:11:10;21.90;99.90
20428;DHT22;10373;49.768;18.302;2022-08-19T05:13:37;22.00;99.90
20428;DHT22;10373;49.768;18.302;2022-08-19T05:16:03;22.10;99.90
20428;DHT22;10373;49.768;18.302;2022-08-19T05:18:28;22.10;99.90
20428;DHT22;10373;49.768;18.302;2022-08-19T05:21:15;22.20;99.90
20428;DHT22;10373;49.768;18.302;2022-08-19T05:24:00;22.30;99.90
20428;DHT22;10373;49.768;18.302;2022-08-19T05:26:26;22.30;99.90
20428;DHT22;10373;49.768;18.302;2022-08-19T05:28:53;22.50;99.90
20428;DHT22;10373;49.768;18.302;2022-08-19T05:31:19;22.50;99.90
20428;DHT22;10373;49.768;18.302;2022-08-19T05:33:45;22.60;99.90
20428;DHT22;10373;49.768;18.302;2022-08-19T05:36:11;22.70;99.90
20428;DHT22;10373;49.768;18.302;2022-08-19T05:38:38;22.80;99.90
20428;DHT22;10373;49.768;18.302;2022-08-19T05:41:09;22.80;99.90
20428;DHT22;10373;49.768;18.302;2022-08-19T05:43:36;22.90;99.90
20428;DHT22;10373;49.768;18.302;2022-08-19T05:46:06;23.00;99.90
20428;DHT22;10373;49.768;18.302;2022-08-19T05:48:35;23.10;99.90
20428;DHT22;10373;49.768;18.302;2022-08-19T05:51:05;23.30;99.90
20428;DHT22;10373;49.768;18.302;2022-08-19T05:53:35;23.40;99.90
20428;DHT22;10373;49.768;18.302;2022-08-19T05:56:13;23.60;99.90
20428;DHT22;10373;49.768;18.302;2022-08-19T05:58:42;23.70;99.90
20428;DHT22;10373;49.768;18.302;2022-08-19T06:01:15;23.90;99.90
20428;DHT22;10373;49.768;18.302;2022-08-19T06:03:41;24.00;99.90
20428;DHT22;10373;49.768;18.302;2022-08-19T06:06:10;24.10;99.90
20428;DHT22;10373;49.768;18.302;2022-08-19T06:08:38;24.20;99.90
20428;DHT22;10373;49.768;18.302;2022-08-19T06:11:41;24.30;99.90
20428;DHT22;10373;49.768;18.302;2022-08-19T06:14:12;24.50;99.90
20428;DHT22;10373;49.768;18.302;2022-08-19T06:16:40;24.70;99.90
20428;DHT22;10373;49.768;18.302;2022-08-19T06:19:09;24.70;99.90
20428;DHT22;10373;49.768;18.302;2022-08-19T06:21:38;24.90;99.90
20428;DHT22;10373;49.768;18.302;2022-08-19T06:24:06;25.00;99.90
20428;DHT22;10373;49.768;18.302;2022-08-19T06:26:34;25.00;99.90
20428;DHT22;10373;49.768;18.302;2022-08-19T06:29:00;25.10;99.90
20428;DHT22;10373;49.768;18.302;2022-08-19T06:31:29;25.20;99.90
20428;DHT22;10373;49.768;18.302;2022-08-19T06:33:56;25.30;99.90
20428;DHT22;10373;49.768;18.302;2022-08-19T06:36:28;25.40;99.90
20428;DHT22;10373;49.768;18.302;2022-08-19T06:39:16;25.50;99.90
20428;DHT22;10373;49.768;18.302;2022-08-19T06:41:44;25.70;99.90
20428;DHT22;10373;49.768;18.302;2022-08-19T06:44:11;25.80;99.90
20428;DHT22;10373;49.768;18.302;2022-08-19T06:46:38;25.90;99.90
20428;DHT22;10373;49.768;18.302;2022-08-19T06:49:06;26.00;99.90
20428;DHT22;10373;49.768;18.302;2022-08-19T06:51:34;26.10;99.90
20428;DHT22;10373;49.768;18.302;2022-08-19T06:54:00;26.20;98.50
20428;DHT22;10373;49.768;18.302;2022-08-19T06:56:29;26.30;97.90
20428;DHT22;10373;49.768;18.302;2022-08-19T06:58:58;26.40;98.70
20428;DHT22;10373;49.768;18.302;2022-08-19T07:01:24;26.60;97.90
20428;DHT22;10373;49.768;18.302;2022-08-19T07:03:50;26.60;95.40
20428;DHT22;10373;49.768;18.302;2022-08-19T07:06:17;26.80;95.80
20428;DHT22;10373;49.768;18.302;2022-08-19T07:08:46;27.00;95.60
20428;DHT22;10373;49.768;18.302;2022-08-19T07:11:15;27.20;94.20
20428;DHT22;10373;49.768;18.302;2022-08-19T07:13:41;27.30;93.30
20428;DHT22;10373;49.768;18.302;2022-08-19T07:16:15;27.50;91.90
20428;DHT22;10373;49.768;18.302;2022-08-19T07:18:41;27.50;91.30
20428;DHT22;10373;49.768;18.302;2022-08-19T07:21:09;27.60;87.00
20428;DHT22;10373;49.768;18.302;2022-08-19T07:23:35;27.60;86.50
20428;DHT22;10373;49.768;18.302;2022-08-19T07:26:14;27.60;87.80
20428;DHT22;10373;49.768;18.302;2022-08-19T07:28:41;27.60;88.50
20428;DHT22;10373;49.768;18.302;2022-08-19T07:31:10;27.60;86.80
20428;DHT22;10373;49.768;18.302;2022-08-19T07:33:36;27.50;81.40
20428;DHT22;10373;49.768;18.302;2022-08-19T07:36:07;27.60;82.40
20428;DHT22;10373;49.768;18.302;2022-08-19T07:38:34;27.70;84.00
20428;DHT22;10373;49.768;18.302;2022-08-19T07:41:00;27.80;78.90
20428;DHT22;10373;49.768;18.302;2022-08-19T07:43:27;27.80;79.00
20428;DHT22;10373;49.768;18.302;2022-08-19T07:45:54;28.00;78.40
20428;DHT22;10373;49.768;18.302;2022-08-19T07:48:26;28.10;80.40
20428;DHT22;10373;49.768;18.302;2022-08-19T07:50:58;28.30;82.50
20428;DHT22;10373;49.768;18.302;2022-08-19T07:53:29;28.30;81.90
20428;DHT22;10373;49.768;18.302;2022-08-19T07:55:55;28.50;79.80
20428;DHT22;10373;49.768;18.302;2022-08-19T07:58:31;28.80;77.50
20428;DHT22;10373;49.768;18.302;2022-08-19T08:00:57;28.90;76.40
20428;DHT22;10373;49.768;18.302;2022-08-19T08:03:23;28.90;78.40
20428;DHT22;10373;49.768;18.302;2022-08-19T08:06:09;28.90;76.80
20428;DHT22;10373;49.768;18.302;2022-08-19T08:08:54;28.80;75.20
20428;DHT22;10373;49.768;18.302;2022-08-19T08:11:38;29.00;75.20
20428;DHT22;10373;49.768;18.302;2022-08-19T08:14:05;29.00;74.10
20428;DHT22;10373;49.768;18.302;2022-08-19T08:16:36;29.00;72.50
20428;DHT22;10373;49.768;18.302;2022-08-19T08:19:04;29.10;72.00
20428;DHT22;10373;49.768;18.302;2022-08-19T08:21:31;29.10;70.00
20428;DHT22;10373;49.768;18.302;2022-08-19T08:23:57;29.00;70.90
20428;DHT22;10373;49.768;18.302;2022-08-19T08:26:23;29.00;72.70
20428;DHT22;10373;49.768;18.302;2022-08-19T08:28:51;29.10;74.30
20428;DHT22;10373;49.768;18.302;2022-08-19T08:31:17;29.30;75.40
20428;DHT22;10373;49.768;18.302;2022-08-19T08:33:44;29.40;70.90
20428;DHT22;10373;49.768;18.302;2022-08-19T08:36:11;29.40;71.60
20428;DHT22;10373;49.768;18.302;2022-08-19T08:38:40;29.50;74.60
20428;DHT22;10373;49.768;18.302;2022-08-19T08:44:14;29.90;68.90
20428;DHT22;10373;49.768;18.302;2022-08-19T08:46:55;30.00;65.10
20428;DHT22;10373;49.768;18.302;2022-08-19T08:52:47;30.40;64.40
20428;DHT22;10373;49.768;18.302;2022-08-19T08:54:57;30.50;63.00
20428;DHT22;10373;49.768;18.302;2022-08-19T08:59:54;30.60;62.10
20428;DHT22;10373;49.768;18.302;2022-08-19T09:02:21;30.50;61.70
20428;DHT22;10373;49.768;18.302;2022-08-19T09:04:47;30.60;63.30
20428;DHT22;10373;49.768;18.302;2022-08-19T09:09:45;30.80;61.40
20428;DHT22;10373;49.768;18.302;2022-08-19T09:12:26;30.90;61.40
20428;DHT22;10373;49.768;18.302;2022-08-19T09:17:24;31.10;57.50
20428;DHT22;10373;49.768;18.302;2022-08-19T09:20:02;31.20;57.90
20428;DHT22;10373;49.768;18.302;2022-08-19T09:22:33;31.40;57.60
20428;DHT22;10373;49.768;18.302;2022-08-19T09:24:59;31.50;56.40
20428;DHT22;10373;49.768;18.302;2022-08-19T09:27:26;31.60;56.80
20428;DHT22;10373;49.768;18.302;2022-08-19T09:29:53;31.70;55.90
20428;DHT22;10373;49.768;18.302;2022-08-19T09:32:20;31.90;55.30
20428;DHT22;10373;49.768;18.302;2022-08-19T09:34:45;32.00;55.20
20428;DHT22;10373;49.768;18.302;2022-08-19T09:37:13;32.20;54.60
20428;DHT22;10373;49.768;18.302;2022-08-19T09:39:40;32.40;54.50
20428;DHT22;10373;49.768;18.302;2022-08-19T09:42:07;32.40;54.20
20428;DHT22;10373;49.768;18.302;2022-08-19T09:44:38;32.40;53.70
20428;DHT22;10373;49.768;18.302;2022-08-19T09:47:04;32.50;52.90
20428;DHT22;10373;49.768;18.302;2022-08-19T09:49:30;32.50;52.30
20428;DHT22;10373;49.768;18.302;2022-08-19T09:51:57;32.80;53.00
20428;DHT22;10373;49.768;18.302;2022-08-19T09:54:23;32.80;52.00
20428;DHT22;10373;49.768;18.302;2022-08-19T09:56:49;33.10;51.80
20428;DHT22;10373;49.768;18.302;2022-08-19T09:59:15;33.20;51.60
20428;DHT22;10373;49.768;18.302;2022-08-19T10:01:41;33.20;51.70
20428;DHT22;10373;49.768;18.302;2022-08-19T10:04:07;33.20;51.90
20428;DHT22;10373;49.768;18.302;2022-08-19T10:06:37;33.20;51.30
20428;DHT22;10373;49.768;18.302;2022-08-19T10:09:06;33.50;52.00
20428;DHT22;10373;49.768;18.302;2022-08-19T10:11:34;33.50;51.30
20428;DHT22;10373;49.768;18.302;2022-08-19T10:14:01;33.60;51.10
20428;DHT22;10373;49.768;18.302;2022-08-19T10:16:27;33.80;51.40
20428;DHT22;10373;49.768;18.302;2022-08-19T10:18:54;33.90;50.80
20428;DHT22;10373;49.768;18.302;2022-08-19T10:21:28;33.80;50.20
20428;DHT22;10373;49.768;18.302;2022-08-19T10:24:00;34.00;51.10
20428;DHT22;10373;49.768;18.302;2022-08-19T10:26:37;34.10;50.50
20428;DHT22;10373;49.768;18.302;2022-08-19T10:29:11;34.30;50.30
20428;DHT22;10373;49.768;18.302;2022-08-19T10:31:45;34.40;50.00
20428;DHT22;10373;49.768;18.302;2022-08-19T10:34:17;34.40;50.10
20428;DHT22;10373;49.768;18.302;2022-08-19T10:36:45;34.50;49.60
20428;DHT22;10373;49.768;18.302;2022-08-19T10:39:13;34.60;49.70
20428;DHT22;10373;49.768;18.302;2022-08-19T10:41:41;34.80;49.20
20428;DHT22;10373;49.768;18.302;2022-08-19T10:44:10;35.00;49.50
20428;DHT22;10373;49.768;18.302;2022-08-19T10:46:39;35.00;48.20
20428;DHT22;10373;49.768;18.302;2022-08-19T10:49:09;34.90;48.40
20428;DHT22;10373;49.768;18.302;2022-08-19T10:51:35;35.00;48.10
20428;DHT22;10373;49.768;18.302;2022-08-19T10:54:20;35.10;48.60
20428;DHT22;10373;49.768;18.302;2022-08-19T10:56:45;35.30;48.10
20428;DHT22;10373;49.768;18.302;2022-08-19T10:59:22;35.50;48.30
20428;DHT22;10373;49.768;18.302;2022-08-19T11:01:50;35.60;48.70
20428;DHT22;10373;49.768;18.302;2022-08-19T11:04:18;35.80;49.10
20428;DHT22;10373;49.768;18.302;2022-08-19T11:06:45;35.80;48.70
20428;DHT22;10373;49.768;18.302;2022-08-19T11:09:12;36.00;48.20
20428;DHT22;10373;49.768;18.302;2022-08-19T11:11:39;35.90;48.10
20428;DHT22;10373;49.768;18.302;2022-08-19T11:14:12;36.10;48.60
20428;DHT22;10373;49.768;18.302;2022-08-19T11:16:40;36.20;48.20
20428;DHT22;10373;49.768;18.302;2022-08-19T11:19:08;36.50;48.00
20428;DHT22;10373;49.768;18.302;2022-08-19T11:21:39;36.60;47.60
20428;DHT22;10373;49.768;18.302;2022-08-19T11:24:09;36.70;47.90
20428;DHT22;10373;49.768;18.302;2022-08-19T11:26:36;36.60;46.80
20428;DHT22;10373;49.768;18.302;2022-08-19T11:29:04;36.70;47.10
20428;DHT22;10373;49.768;18.302;2022-08-19T11:31:33;36.90;47.20
20428;DHT22;10373;49.768;18.302;2022-08-19T11:34:03;37.30;47.10
20428;DHT22;10373;49.768;18.302;2022-08-19T11:36:30;37.40;46.10
20428;DHT22;10373;49.768;18.302;2022-08-19T11:38:58;37.50;46.40
20428;DHT22;10373;49.768;18.302;2022-08-19T11:41:24;37.60;46.20
20428;DHT22;10373;49.768;18.302;2022-08-19T11:43:51;38.00;45.50
20428;DHT22;10373;49.768;18.302;2022-08-19T11:46:19;38.10;46.30
20428;DHT22;10373;49.768;18.302;2022-08-19T11:48:45;38.30;45.90
20428;DHT22;10373;49.768;18.302;2022-08-19T11:51:14;38.60;45.30
20428;DHT22;10373;49.768;18.302;2022-08-19T11:53:40;38.80;45.60
20428;DHT22;10373;49.768;18.302;2022-08-19T11:56:07;39.10;45.50
20428;DHT22;10373;49.768;18.302;2022-08-19T11:58:33;39.30;44.90
20428;DHT22;10373;49.768;18.302;2022-08-19T12:00:59;39.50;44.90
20428;DHT22;10373;49.768;18.302;2022-08-19T12:03:25;38.90;44.10
20428;DHT22;10373;49.768;18.302;2022-08-19T12:05:51;38.90;44.30
20428;DHT22;10373;49.768;18.302;2022-08-19T12:08:18;39.10;43.90
20428;DHT22;10373;49.768;18.302;2022-08-19T12:10:43;39.20;44.00
20428;DHT22;10373;49.768;18.302;2022-08-19T12:13:12;39.70;43.80
20428;DHT22;10373;49.768;18.302;2022-08-19T12:15:40;40.00;43.60
20428;DHT22;10373;49.768;18.302;2022-08-19T12:18:07;40.20;43.10
20428;DHT22;10373;49.768;18.302;2022-08-19T12:20:38;40.40;42.60
20428;DHT22;10373;49.768;18.302;2022-08-19T12:29:05;40.10;43.10
20428;DHT22;10373;49.768;18.302;2022-08-19T12:31:31;40.30;43.50
20428;DHT22;10373;49.768;18.302;2022-08-19T12:33:57;40.50;43.20
20428;DHT22;10373;49.768;18.302;2022-08-19T12:36:24;40.60;43.10
20428;DHT22;10373;49.768;18.302;2022-08-19T12:38:51;40.10;42.50
20428;DHT22;10373;49.768;18.302;2022-08-19T12:41:18;40.00;42.60
20428;DHT22;10373;49.768;18.302;2022-08-19T12:43:44;40.10;42.50
20428;DHT22;10373;49.768;18.302;2022-08-19T12:46:10;40.30;42.90
20428;DHT22;10373;49.768;18.302;2022-08-19T12:48:37;40.10;42.30
20428;DHT22;10373;49.768;18.302;2022-08-19T12:51:15;39.60;42.80
20428;DHT22;10373;49.768;18.302;2022-08-19T12:53:41;39.00;43.00
20428;DHT22;10373;49.768;18.302;2022-08-19T12:56:08;38.70;44.00
20428;DHT22;10373;49.768;18.302;2022-08-19T12:58:34;37.80;44.20
20428;DHT22;10373;49.768;18.302;2022-08-19T13:01:10;37.70;45.00
20428;DHT22;10373;49.768;18.302;2022-08-19T13:03:36;37.70;45.30
20428;DHT22;10373;49.768;18.302;2022-08-19T13:06:02;37.80;45.10
20428;DHT22;10373;49.768;18.302;2022-08-19T13:08:28;37.80;45.00
20428;DHT22;10373;49.768;18.302;2022-08-19T13:10:54;38.00;45.20
20428;DHT22;10373;49.768;18.302;2022-08-19T13:13:19;38.30;44.40
20428;DHT22;10373;49.768;18.302;2022-08-19T13:15:45;38.60;44.30
20428;DHT22;10373;49.768;18.302;2022-08-19T13:18:12;38.90;43.40
20428;DHT22;10373;49.768;18.302;2022-08-19T13:20:38;39.00;42.40
20428;DHT22;10373;49.768;18.302;2022-08-19T13:23:06;39.00;43.10
20428;DHT22;10373;49.768;18.302;2022-08-19T13:25:32;38.80;42.70
20428;DHT22;10373;49.768;18.302;2022-08-19T13:27:59;39.10;43.70
20428;DHT22;10373;49.768;18.302;2022-08-19T13:30:25;39.20;42.60
20428;DHT22;10373;49.768;18.302;2022-08-19T13:33:09;38.80;42.70
20428;DHT22;10373;49.768;18.302;2022-08-19T13:35:57;38.90;43.40
20428;DHT22;10373;49.768;18.302;2022-08-19T13:38:24;39.30;42.90
20428;DHT22;10373;49.768;18.302;2022-08-19T13:40:52;39.30;42.30
20428;DHT22;10373;49.768;18.302;2022-08-19T13:43:19;39.40;42.50
20428;DHT22;10373;49.768;18.302;2022-08-19T13:45:48;39.50;41.40
20428;DHT22;10373;49.768;18.302;2022-08-19T13:48:14;39.40;42.40
20428;DHT22;10373;49.768;18.302;2022-08-19T13:50:43;38.90;42.50
20428;DHT22;10373;49.768;18.302;2022-08-19T13:53:10;38.30;42.90
20428;DHT22;10373;49.768;18.302;2022-08-19T13:55:40;37.80;43.20
20428;DHT22;10373;49.768;18.302;2022-08-19T13:58:07;37.70;43.50
20428;DHT22;10373;49.768;18.302;2022-08-19T14:00:37;37.20;43.70
20428;DHT22;10373;49.768;18.302;2022-08-19T14:03:04;37.10;43.80
20428;DHT22;10373;49.768;18.302;2022-08-19T14:05:31;37.40;43.80
20428;DHT22;10373;49.768;18.302;2022-08-19T14:07:57;37.50;44.10
20428;DHT22;10373;49.768;18.302;2022-08-19T14:10:24;37.60;44.10
20428;DHT22;10373;49.768;18.302;2022-08-19T14:12:54;37.90;44.40
20428;DHT22;10373;49.768;18.302;2022-08-19T14:15:21;37.90;43.70
20428;DHT22;10373;49.768;18.302;2022-08-19T14:17:48;37.70;43.70
20428;DHT22;10373;49.768;18.302;2022-08-19T14:20:14;37.60;44.50
20428;DHT22;10373;49.768;18.302;2022-08-19T14:22:41;37.10;44.90
20428;DHT22;10373;49.768;18.302;2022-08-19T14:25:09;37.00;45.20
20428;DHT22;10373;49.768;18.302;2022-08-19T14:27:37;36.80;45.00
20428;DHT22;10373;49.768;18.302;2022-08-19T14:30:08;36.70;45.80
